Time;durP1;ratioP1;P1;durP2;ratioP2;P2;SDS_P1;SDS_P2;PMS_P1;PMS_P2;Temp;Humidity;BMP_temperature;BMP_pressure;BME280_temperature;BME280_humidity;BME280_pressure;Samples;Min_cycle;Max_cycle;Signal;HPM_P1;HPM_P2
2023/03/21 00:00:54;;;;;;;8.00;7.70;;;11.70;99.90;;;;;;4912632;29;20528;-80
2023/03/21 00:03:23;;;;;;;8.13;7.80;;;11.70;99.90;;;;;;4919218;29;20453;-79
2023/03/21 00:05:52;;;;;;;8.53;8.03;;;11.80;99.90;;;;;;4918427;29;20450;-77
2023/03/21 00:08:22;;;;;;;7.70;7.40;;;11.80;99.90;;;;;;4916208;29;20496;-81
2023/03/21 00:10:56;;;;;;;7.97;7.67;;;11.80;99.90;;;;;;4917893;29;20520;-79
2023/03/21 00:13:27;;;;;;;7.93;7.63;;;11.80;99.90;;;;;;4911394;29;20455;-79
2023/03/21 00:15:56;;;;;;;8.13;7.83;;;11.80;99.90;;;;;;4911470;29;20458;-80
2023/03/21 00:18:45;;;;;;;8.70;8.30;;;11.80;99.90;;;;;;4913032;29;20492;-80
2023/03/21 00:21:15;;;;;;;8.30;7.90;;;11.80;99.90;;;;;;4913219;29;20523;-80
2023/03/21 00:24:05;;;;;;;9.00;8.60;;;11.80;99.90;;;;;;4914165;29;20612;-81
2023/03/21 00:26:33;;;;;;;8.17;7.90;;;11.80;99.90;;;;;;4921451;29;20967;-78
2023/03/21 00:29:03;;;;;;;8.77;8.47;;;11.70;99.90;;;;;;4914963;29;21613;-77
2023/03/21 00:31:31;;;;;;;7.87;7.60;;;11.70;99.90;;;;;;4915534;29;20557;-77
2023/03/21 00:34:00;;;;;;;8.03;7.70;;;11.80;99.90;;;;;;4918932;29;20480;-78
2023/03/21 00:36:28;;;;;;;8.23;7.93;;;11.70;99.90;;;;;;4920110;29;20456;-80
2023/03/21 00:38:56;;;;;;;7.83;7.60;;;11.70;99.90;;;;;;4917894;29;20466;-78
2023/03/21 00:41:24;;;;;;;8.00;7.80;;;11.70;99.90;;;;;;4917478;29;20532;-80
2023/03/21 00:44:12;;;;;;;7.97;7.73;;;11.70;99.90;;;;;;4920478;29;20473;-83
2023/03/21 00:46:41;;;;;;;8.33;8.00;;;11.80;99.90;;;;;;4919922;29;20560;-80
2023/03/21 00:49:24;;;;;;;8.97;8.67;;;11.80;99.90;;;;;;4917039;29;20552;-80
2023/03/21 00:51:53;;;;;;;7.70;7.37;;;11.70;99.90;;;;;;4918269;29;20506;-80
2023/03/21 00:54:24;;;;;;;8.27;7.80;;;11.70;99.90;;;;;;4918970;29;20859;-78
2023/03/21 00:56:53;;;;;;;8.10;7.80;;;11.70;99.90;;;;;;4922469;29;20465;-80
2023/03/21 00:59:22;;;;;;;8.00;7.70;;;11.80;99.90;;;;;;4919787;29;21001;-80
2023/03/21 01:01:52;;;;;;;8.53;8.23;;;11.70;99.90;;;;;;4921082;29;20457;-77
2023/03/21 01:04:25;;;;;;;8.50;8.20;;;11.70;99.90;;;;;;4918962;29;20476;-77
2023/03/21 01:06:54;;;;;;;8.97;8.57;;;11.70;99.90;;;;;;4924242;29;20460;-80
2023/03/21 01:09:24;;;;;;;8.67;8.30;;;11.60;99.90;;;;;;4921253;29;20489;-78
2023/03/21 01:11:54;;;;;;;8.93;8.30;;;11.60;99.90;;;;;;4917420;29;20471;-79
2023/03/21 01:14:24;;;;;;;8.80;8.30;;;11.50;99.90;;;;;;4919222;29;20488;-77
2023/03/21 01:16:53;;;;;;;8.67;8.27;;;11.60;99.90;;;;;;4919026;29;20900;-80
2023/03/21 01:19:25;;;;;;;8.87;8.53;;;11.50;99.90;;;;;;4919492;29;20470;-78
2023/03/21 01:22:12;;;;;;;8.90;8.53;;;11.50;99.90;;;;;;4916862;29;20449;-77
2023/03/21 01:24:40;;;;;;;8.43;8.13;;;11.50;99.90;;;;;;4918408;29;20489;-79
2023/03/21 01:27:20;;;;;;;8.30;8.10;;;11.50;99.90;;;;;;4915494;29;20457;-79
2023/03/21 01:29:50;;;;;;;9.03;8.43;;;11.50;99.90;;;;;;4915711;29;20481;-75
2023/03/21 01:32:18;;;;;;;8.83;8.43;;;11.60;99.90;;;;;;4919259;29;20466;-78
2023/03/21 01:34:46;;;;;;;8.30;8.10;;;11.60;99.90;;;;;;4920179;29;21175;-78
2023/03/21 01:37:16;;;;;;;8.73;8.33;;;11.50;99.90;;;;;;4916780;29;20527;-78
2023/03/21 01:39:45;;;;;;;9.07;8.73;;;11.50;99.90;;;;;;4910573;29;20471;-78
2023/03/21 01:42:14;;;;;;;8.67;8.37;;;11.40;99.90;;;;;;4916797;29;20549;-77
2023/03/21 01:44:55;;;;;;;181.50;78.47;;;11.40;99.90;;;;;;4919088;29;20574;-80
2023/03/21 01:47:23;;;;;;;27.80;19.30;;;11.40;99.90;;;;;;4916035;29;20460;-81
2023/03/21 01:49:55;;;;;;;9.40;9.10;;;11.40;99.90;;;;;;4917062;29;20467;-78
2023/03/21 01:52:26;;;;;;;8.73;8.43;;;11.40;99.90;;;;;;4921885;29;20469;-79
2023/03/21 01:55:12;;;;;;;9.40;9.00;;;11.40;99.90;;;;;;4922472;29;20479;-80
2023/03/21 01:57:44;;;;;;;8.43;8.10;;;11.30;99.90;;;;;;4921527;29;20454;-78
2023/03/21 02:00:33;;;;;;;8.57;8.27;;;11.30;99.90;;;;;;4899865;29;20603;-77
2023/03/21 02:03:07;;;;;;;9.97;9.53;;;11.30;99.90;;;;;;4898951;29;20453;-78
2023/03/21 02:05:52;;;;;;;8.40;8.00;;;11.30;99.90;;;;;;4919128;29;20495;-80
2023/03/21 02:08:22;;;;;;;8.40;8.10;;;11.30;99.90;;;;;;4916329;29;20453;-77
2023/03/21 02:11:03;;;;;;;8.50;8.30;;;11.30;99.90;;;;;;4917048;29;21143;-80
2023/03/21 02:13:32;;;;;;;8.80;8.50;;;11.30;99.90;;;;;;4916230;29;21224;-79
2023/03/21 02:16:08;;;;;;;9.07;8.70;;;11.20;99.90;;;;;;4913876;29;20539;-79
2023/03/21 02:18:43;;;;;;;9.20;8.90;;;11.20;99.90;;;;;;4911521;29;21074;-80
2023/03/21 02:21:50;;;;;;;8.80;8.30;;;11.30;99.90;;;;;;4918104;29;21468;-76
2023/03/21 02:24:53;;;;;;;8.40;8.10;;;11.20;1.00;;;;;;4872204;29;21021;-76
2023/03/21 02:27:34;;;;;;;8.93;8.33;;;11.20;1.00;;;;;;4916943;29;20469;-79
2023/03/21 02:30:35;;;;;;;10.00;9.60;;;11.20;1.00;;;;;;4916857;29;20466;-80
2023/03/21 02:33:51;;;;;;;9.43;9.13;;;11.20;99.90;;;;;;4914999;29;20463;-79
2023/03/21 02:36:33;;;;;;;8.80;8.50;;;11.30;99.90;;;;;;4916611;29;20552;-76
2023/03/21 02:39:12;;;;;;;8.80;8.40;;;11.30;99.90;;;;;;4918167;29;20461;-79
2023/03/21 02:41:48;;;;;;;9.40;8.90;;;11.30;99.90;;;;;;4915556;29;20481;-76
2023/03/21 02:44:22;;;;;;;8.47;8.07;;;11.40;99.90;;;;;;4916365;29;20513;-77
2023/03/21 02:46:55;;;;;;;8.87;8.63;;;11.40;99.90;;;;;;4919015;29;20485;-80
2023/03/21 02:49:41;;;;;;;9.07;8.67;;;11.40;99.90;;;;;;4915450;29;20503;-77
2023/03/21 02:52:13;;;;;;;8.70;8.40;;;11.30;99.90;;;;;;4916749;29;20516;-77
2023/03/21 02:55:03;;;;;;;9.13;8.67;;;11.30;99.90;;;;;;4918734;29;20864;-76
2023/03/21 02:57:33;;;;;;;8.63;8.33;;;11.30;99.90;;;;;;4913412;29;20477;-78
2023/03/21 03:00:13;;;;;;;8.30;7.87;;;11.30;99.90;;;;;;4914594;29;20975;-78
2023/03/21 03:02:44;;;;;;;9.23;8.93;;;11.30;99.90;;;;;;4914713;29;20445;-79
2023/03/21 03:05:16;;;;;;;8.63;8.40;;;11.30;99.90;;;;;;4919834;29;20489;-77
2023/03/21 03:07:58;;;;;;;8.87;8.47;;;11.20;99.90;;;;;;4916359;29;20988;-78
2023/03/21 03:10:39;;;;;;;8.50;8.20;;;11.20;99.90;;;;;;4917210;29;20458;-78
2023/03/21 03:13:20;;;;;;;8.43;8.23;;;11.30;99.90;;;;;;4917237;29;20454;-76
2023/03/21 03:15:59;;;;;;;9.07;8.67;;;11.20;99.90;;;;;;4917255;29;20478;-78
2023/03/21 03:18:33;;;;;;;9.13;8.60;;;11.10;99.90;;;;;;4915596;29;20497;-75
2023/03/21 03:21:09;;;;;;;9.70;9.07;;;11.10;99.90;;;;;;4919076;29;20457;-77
2023/03/21 03:23:44;;;;;;;9.77;9.37;;;11.10;99.90;;;;;;4915511;29;20467;-75
2023/03/21 03:26:17;;;;;;;10.10;9.43;;;11.00;99.90;;;;;;4915358;29;20459;-77
2023/03/21 03:28:50;;;;;;;9.43;9.13;;;11.10;99.90;;;;;;4916720;29;20552;-77
2023/03/21 03:31:24;;;;;;;8.83;8.50;;;11.00;99.90;;;;;;4913878;29;20486;-78
2023/03/21 03:33:56;;;;;;;8.70;8.40;;;11.00;99.90;;;;;;4919593;29;20488;-78
2023/03/21 03:36:28;;;;;;;9.07;8.77;;;11.10;99.90;;;;;;4911904;29;20462;-76
2023/03/21 03:39:04;;;;;;;9.27;8.97;;;11.00;99.90;;;;;;4918679;29;20497;-78
2023/03/21 03:41:40;;;;;;;10.63;10.00;;;11.00;99.90;;;;;;4914800;29;20490;-76
2023/03/21 03:44:30;;;;;;;9.07;8.67;;;11.00;99.90;;;;;;4914316;29;20585;-78
2023/03/21 03:47:04;;;;;;;9.13;8.83;;;11.00;99.90;;;;;;4917530;29;20479;-76
2023/03/21 03:49:37;;;;;;;9.13;8.73;;;11.00;99.90;;;;;;4916665;29;20475;-79
2023/03/21 03:52:12;;;;;;;9.30;9.00;;;10.90;1.00;;;;;;4918103;29;20589;-79
2023/03/21 03:54:43;;;;;;;9.90;9.47;;;11.00;99.90;;;;;;4920873;29;20535;-81
2023/03/21 03:57:14;;;;;;;9.53;9.13;;;11.00;99.90;;;;;;4917732;29;20450;-79
2023/03/21 03:59:45;;;;;;;9.70;9.30;;;10.90;99.90;;;;;;4917712;29;20456;-77
2023/03/21 04:02:13;;;;;;;9.40;8.90;;;10.90;99.90;;;;;;4919705;29;20839;-78
2023/03/21 04:04:42;;;;;;;8.90;8.60;;;10.90;99.90;;;;;;4922701;29;20585;-80
2023/03/21 04:07:10;;;;;;;9.20;8.90;;;10.90;99.90;;;;;;4916275;29;20462;-78
2023/03/21 04:09:38;;;;;;;9.27;8.87;;;10.80;99.90;;;;;;4917106;29;20462;-80
2023/03/21 04:12:13;;;;;;;10.10;9.60;;;10.80;1.00;;;;;;4919969;29;20477;-79
2023/03/21 04:14:42;;;;;;;9.70;9.30;;;10.90;1.00;;;;;;4913963;29;20543;-78
2023/03/21 04:17:14;;;;;;;9.47;9.17;;;10.90;99.90;;;;;;4914793;29;20468;-79
2023/03/21 04:19:44;;;;;;;9.30;8.90;;;10.90;99.90;;;;;;4917570;29;20553;-79
2023/03/21 04:22:12;;;;;;;9.67;9.27;;;10.90;99.90;;;;;;4919719;29;20474;-78
2023/03/21 04:24:41;;;;;;;8.73;8.43;;;10.90;99.90;;;;;;4919457;29;20509;-81
2023/03/21 04:27:09;;;;;;;8.83;8.40;;;10.90;99.90;;;;;;4920815;29;20466;-80
2023/03/21 04:29:39;;;;;;;8.97;8.67;;;10.90;99.90;;;;;;4919490;29;20468;-79
2023/03/21 04:32:14;;;;;;;9.70;9.23;;;10.90;99.90;;;;;;4912042;29;20489;-80
2023/03/21 04:34:48;;;;;;;9.23;8.93;;;10.80;99.90;;;;;;4919138;29;20544;-80
2023/03/21 04:37:18;;;;;;;9.70;9.30;;;10.70;99.90;;;;;;4920629;29;20842;-80
2023/03/21 04:39:47;;;;;;;9.57;9.13;;;10.70;99.90;;;;;;4917969;29;20497;-79
2023/03/21 04:42:17;;;;;;;9.03;8.70;;;10.60;99.90;;;;;;4918301;29;20528;-83
2023/03/21 04:44:47;;;;;;;9.40;9.00;;;10.50;1.00;;;;;;4913537;29;20907;-78
2023/03/21 04:47:15;;;;;;;9.57;8.97;;;10.50;1.00;;;;;;4913375;29;20544;-79
2023/03/21 04:49:44;;;;;;;8.70;8.40;;;10.40;1.00;;;;;;4912917;29;20505;-81
2023/03/21 04:52:12;;;;;;;9.00;8.67;;;10.40;1.00;;;;;;4912636;29;20491;-80
2023/03/21 04:54:40;;;;;;;9.27;8.97;;;10.30;1.00;;;;;;4915321;29;20488;-79
2023/03/21 04:57:09;;;;;;;9.23;8.83;;;10.30;1.00;;;;;;4916451;29;20464;-81
2023/03/21 04:59:37;;;;;;;9.37;9.07;;;10.30;1.00;;;;;;4918279;29;20524;-79
2023/03/21 05:02:06;;;;;;;8.80;8.50;;;10.20;1.00;;;;;;4914530;29;20495;-80
2023/03/21 05:04:35;;;;;;;9.17;8.87;;;10.20;1.00;;;;;;4917978;29;20473;-80
2023/03/21 05:07:03;;;;;;;9.53;9.10;;;10.00;1.00;;;;;;4902313;29;20540;-77
2023/03/21 05:09:31;;;;;;;9.97;9.63;;;10.00;1.00;;;;;;4915610;29;20499;-77
2023/03/21 05:11:59;;;;;;;10.47;9.97;;;10.00;1.00;;;;;;4912357;29;20594;-79
2023/03/21 05:14:28;;;;;;;10.00;9.60;;;9.90;1.00;;;;;;4916799;29;20517;-80
2023/03/21 05:16:56;;;;;;;10.03;9.73;;;9.90;1.00;;;;;;4920215;29;21184;-79
2023/03/21 05:19:33;;;;;;;9.90;9.50;;;9.90;1.00;;;;;;4917901;29;20554;-77
2023/03/21 05:22:04;;;;;;;10.70;10.00;;;9.90;1.00;;;;;;4920666;29;21032;-78
2023/03/21 05:24:33;;;;;;;10.83;10.43;;;9.90;1.00;;;;;;4918152;29;20853;-78
2023/03/21 05:27:02;;;;;;;10.70;10.10;;;10.00;1.00;;;;;;4915465;29;20543;-81
2023/03/21 05:29:31;;;;;;;10.00;9.60;;;10.00;1.00;;;;;;4918309;29;20523;-79
2023/03/21 05:32:00;;;;;;;10.00;9.60;;;10.00;1.00;;;;;;4915881;29;20500;-78
2023/03/21 05:34:30;;;;;;;10.70;10.30;;;9.90;1.00;;;;;;4920742;29;20492;-78
2023/03/21 05:36:59;;;;;;;11.43;10.30;;;9.90;1.00;;;;;;4913798;29;20455;-79
2023/03/21 05:39:27;;;;;;;10.40;10.00;;;10.00;1.00;;;;;;4914989;29;21380;-80
2023/03/21 05:41:55;;;;;;;11.07;10.50;;;10.00;1.00;;;;;;4917412;29;20453;-79
2023/03/21 05:44:23;;;;;;;10.63;10.03;;;10.00;1.00;;;;;;4915127;29;21004;-78
2023/03/21 05:46:51;;;;;;;9.83;9.53;;;9.90;1.00;;;;;;4920095;29;20465;-80
2023/03/21 05:49:21;;;;;;;9.80;9.50;;;10.00;1.00;;;;;;4919871;29;20565;-81
2023/03/21 05:51:51;;;;;;;11.67;10.87;;;10.10;1.00;;;;;;4920308;29;20476;-80
2023/03/21 05:54:19;;;;;;;10.47;10.00;;;10.00;1.50;;;;;;4918346;29;20488;-80
2023/03/21 05:56:47;;;;;;;10.73;10.33;;;10.00;1.00;;;;;;4918163;29;20460;-79
2023/03/21 05:59:16;;;;;;;10.83;10.33;;;10.00;1.00;;;;;;4922927;29;20461;-80
2023/03/21 06:01:44;;;;;;;11.33;10.70;;;10.00;1.00;;;;;;4914357;29;20575;-80
2023/03/21 06:04:12;;;;;;;12.37;11.37;;;10.10;64.20;;;;;;4919978;29;20490;-80
2023/03/21 06:06:41;;;;;;;11.07;10.67;;;10.00;24.10;;;;;;4921273;29;20926;-79
2023/03/21 06:09:10;;;;;;;11.37;10.87;;;10.10;5.20;;;;;;4919063;29;20826;-77
2023/03/21 06:11:40;;;;;;;13.03;12.43;;;10.20;25.50;;;;;;4915107;29;20997;-78
2023/03/21 06:14:09;;;;;;;11.67;11.17;;;10.20;7.20;;;;;;4920653;29;20490;-79
2023/03/21 06:16:37;;;;;;;12.57;11.67;;;10.20;16.20;;;;;;4913921;29;20508;-79
2023/03/21 06:19:05;;;;;;;12.27;11.73;;;10.30;1.00;;;;;;4904219;29;20472;-79
2023/03/21 06:21:33;;;;;;;11.60;11.20;;;10.30;1.00;;;;;;4919655;29;20453;-78
2023/03/21 06:24:01;;;;;;;11.10;10.70;;;10.20;1.00;;;;;;4920888;29;20485;-79
2023/03/21 06:26:31;;;;;;;11.20;10.80;;;10.20;1.00;;;;;;4912984;29;20455;-78
2023/03/21 06:28:59;;;;;;;12.47;11.63;;;10.30;1.00;;;;;;4907787;29;20551;-79
2023/03/21 06:31:27;;;;;;;11.63;11.13;;;10.30;1.00;;;;;;4914314;29;20520;-77
2023/03/21 06:33:55;;;;;;;11.73;11.23;;;10.30;1.00;;;;;;4912036;29;20488;-78
2023/03/21 06:36:23;;;;;;;11.20;10.80;;;10.40;1.00;;;;;;4913301;29;20457;-77
2023/03/21 06:38:51;;;;;;;11.77;11.27;;;10.50;1.00;;;;;;4915963;29;20551;-78
2023/03/21 06:41:19;;;;;;;11.13;10.73;;;10.60;1.00;;;;;;4907084;29;20501;-76
2023/03/21 06:43:49;;;;;;;10.83;10.53;;;10.70;1.00;;;;;;4915445;29;20459;-78
2023/03/21 06:46:17;;;;;;;11.53;11.03;;;10.90;1.00;;;;;;4901838;29;20456;-75
2023/03/21 06:48:45;;;;;;;11.27;10.87;;;11.00;1.00;;;;;;4910713;29;20465;-80
2023/03/21 06:51:15;;;;;;;11.50;11.00;;;11.00;1.00;;;;;;4915836;29;20466;-79
2023/03/21 06:53:43;;;;;;;10.23;9.87;;;11.10;1.00;;;;;;4916126;29;20501;-78
2023/03/21 06:56:12;;;;;;;12.20;11.70;;;11.10;1.00;;;;;;4919666;29;20529;-78
2023/03/21 06:58:41;;;;;;;11.67;11.17;;;11.10;1.00;;;;;;4910417;29;21471;-79
2023/03/21 07:01:10;;;;;;;11.83;11.30;;;11.30;99.90;;;;;;4916674;29;20472;-82
2023/03/21 07:03:39;;;;;;;11.77;11.20;;;11.30;99.90;;;;;;4916324;29;20442;-78
2023/03/21 07:06:10;;;;;;;11.20;10.70;;;11.40;99.90;;;;;;4920701;29;20473;-77
2023/03/21 07:08:39;;;;;;;11.30;10.80;;;11.40;99.90;;;;;;4897663;29;20475;-79
2023/03/21 07:11:08;;;;;;;11.57;11.17;;;11.60;99.90;;;;;;4917316;29;21069;-78
2023/03/21 07:13:36;;;;;;;10.90;10.40;;;11.70;99.90;;;;;;4921115;29;20557;-82
2023/03/21 07:16:05;;;;;;;11.13;10.67;;;11.80;99.90;;;;;;4923629;29;20467;-79
2023/03/21 07:18:35;;;;;;;10.90;10.50;;;11.90;99.90;;;;;;4918409;29;20460;-82
2023/03/21 07:21:04;;;;;;;10.43;10.07;;;12.00;99.90;;;;;;4915631;29;20452;-81
2023/03/21 07:23:32;;;;;;;10.80;10.30;;;12.00;99.90;;;;;;4915428;29;20562;-81
2023/03/21 07:26:01;;;;;;;13.00;12.30;;;12.20;99.90;;;;;;4914623;29;20576;-78
2023/03/21 07:28:30;;;;;;;10.63;10.00;;;12.30;99.90;;;;;;4911698;29;20526;-81
2023/03/21 07:31:00;;;;;;;9.97;9.67;;;12.40;99.90;;;;;;4915193;29;20475;-81
2023/03/21 07:33:28;;;;;;;10.10;9.70;;;12.40;99.90;;;;;;4921884;29;20481;-80
2023/03/21 07:35:58;;;;;;;10.17;9.77;;;12.50;99.90;;;;;;4917589;29;20589;-81
2023/03/21 07:38:29;;;;;;;10.43;10.13;;;12.70;99.90;;;;;;4916621;29;23007;-79
2023/03/21 07:41:00;;;;;;;11.40;11.00;;;12.90;99.90;;;;;;4913718;29;20547;-80
2023/03/21 07:43:28;;;;;;;10.70;10.30;;;12.90;99.90;;;;;;4915764;29;20481;-78
2023/03/21 07:45:57;;;;;;;11.77;11.17;;;13.10;99.90;;;;;;4915964;29;20900;-80
2023/03/21 07:48:26;;;;;;;10.80;10.50;;;13.50;99.90;;;;;;4921381;29;20556;-80
2023/03/21 07:50:54;;;;;;;10.90;10.43;;;13.60;99.90;;;;;;4918596;29;20468;-81
2023/03/21 07:53:24;;;;;;;10.73;10.40;;;13.90;99.90;;;;;;4918115;29;20484;-81
2023/03/21 07:55:55;;;;;;;10.20;9.90;;;14.20;99.90;;;;;;4920634;29;20488;-81
2023/03/21 07:58:23;;;;;;;10.33;10.03;;;14.40;99.90;;;;;;4920129;29;20492;-81
2023/03/21 08:00:52;;;;;;;10.43;10.00;;;14.80;99.90;;;;;;4918477;29;20461;-80
2023/03/21 08:03:20;;;;;;;10.30;10.00;;;14.90;99.90;;;;;;4920970;29;20493;-79
2023/03/21 08:05:48;;;;;;;10.83;10.30;;;15.10;99.90;;;;;;4921817;29;20485;-78
2023/03/21 08:08:17;;;;;;;10.20;9.53;;;15.60;99.90;;;;;;4920979;29;20967;-80
2023/03/21 08:10:46;;;;;;;9.97;9.60;;;15.80;99.90;;;;;;4920737;29;20458;-81
2023/03/21 08:13:15;;;;;;;10.43;10.03;;;16.00;99.90;;;;;;4924660;29;20449;-80
2023/03/21 08:15:43;;;;;;;9.67;9.37;;;16.30;99.90;;;;;;4922149;29;20485;-80
2023/03/21 08:18:11;;;;;;;9.70;9.30;;;16.50;99.90;;;;;;4915585;29;20552;-76
2023/03/21 08:20:40;;;;;;;9.20;8.90;;;16.60;99.90;;;;;;4914501;29;20476;-80
2023/03/21 08:23:08;;;;;;;10.00;9.70;;;16.90;99.90;;;;;;4914585;29;20464;-80
2023/03/21 08:25:37;;;;;;;8.50;8.30;;;17.30;99.90;;;;;;4914228;29;20487;-80
2023/03/21 08:28:06;;;;;;;8.13;7.83;;;17.50;99.90;;;;;;4917826;29;20469;-83
2023/03/21 08:30:35;;;;;;;7.57;7.37;;;17.30;99.90;;;;;;4919313;29;20459;-79
2023/03/21 08:33:04;;;;;;;7.00;6.80;;;17.60;99.90;;;;;;4919292;29;20554;-81
2023/03/21 08:35:33;;;;;;;7.43;7.23;;;17.70;99.90;;;;;;4916085;29;20502;-79
2023/03/21 08:38:03;;;;;;;7.73;7.40;;;17.80;99.90;;;;;;4915803;29;20899;-80
2023/03/21 08:40:31;;;;;;;6.20;6.10;;;18.10;99.90;;;;;;4915288;29;20463;-78
2023/03/21 08:43:00;;;;;;;7.10;6.70;;;17.90;99.90;;;;;;4917822;29;20454;-81
2023/03/21 08:45:30;;;;;;;7.00;6.63;;;18.20;99.90;;;;;;4915997;29;20479;-81
2023/03/21 08:47:58;;;;;;;6.23;6.00;;;18.40;99.90;;;;;;4918008;29;20892;-80
2023/03/21 08:50:30;;;;;;;7.80;7.30;;;18.50;99.90;;;;;;4916825;29;20451;-81
2023/03/21 08:52:58;;;;;;;6.87;6.47;;;18.30;99.90;;;;;;4918231;29;21080;-81
2023/03/21 08:55:26;;;;;;;6.30;6.10;;;18.00;99.90;;;;;;4922522;29;20606;-82
2023/03/21 08:57:54;;;;;;;7.00;6.50;;;17.90;99.90;;;;;;4926933;29;20475;-81
2023/03/21 09:00:23;;;;;;;6.33;6.13;;;17.90;99.90;;;;;;4925524;29;20590;-79
2023/03/21 09:02:53;;;;;;;6.67;6.37;;;18.10;99.90;;;;;;4925900;29;20929;-81
2023/03/21 09:05:24;;;;;;;5.80;5.60;;;18.10;99.90;;;;;;4927578;29;20575;-81
2023/03/21 09:07:52;;;;;;;6.43;6.13;;;18.50;99.90;;;;;;4926805;29;20463;-81
2023/03/21 09:10:22;;;;;;;6.57;6.37;;;18.30;99.90;;;;;;4925566;29;20462;-80
2023/03/21 09:12:52;;;;;;;6.63;6.43;;;18.50;99.90;;;;;;4921098;29;20451;-80
2023/03/21 09:15:23;;;;;;;7.40;6.90;;;18.80;99.90;;;;;;4926432;29;20487;-81
2023/03/21 09:17:55;;;;;;;6.63;6.43;;;19.50;99.90;;;;;;4925045;29;21042;-81
2023/03/21 09:20:29;;;;;;;6.23;6.03;;;19.70;99.90;;;;;;4919704;29;20457;-82
2023/03/21 09:23:00;;;;;;;6.07;5.87;;;19.60;99.90;;;;;;4921345;29;20474;-81
2023/03/21 09:25:30;;;;;;;6.23;6.03;;;19.60;99.90;;;;;;4919366;29;20495;-80
2023/03/21 09:27:59;;;;;;;6.40;6.17;;;19.60;99.90;;;;;;4920269;29;20476;-81
2023/03/21 09:30:30;;;;;;;6.83;6.53;;;19.50;99.90;;;;;;4914966;29;20507;-82
2023/03/21 09:33:02;;;;;;;6.17;5.97;;;19.90;99.90;;;;;;4915535;29;20464;-80
2023/03/21 09:35:30;;;;;;;6.37;6.17;;;20.00;99.90;;;;;;4918641;29;20472;-79
2023/03/21 09:38:00;;;;;;;6.30;6.00;;;19.90;99.90;;;;;;4909433;29;21137;-81
2023/03/21 09:40:45;;;;;;;5.90;5.60;;;20.50;99.90;;;;;;4915246;29;20893;-78
2023/03/21 09:43:23;;;;;;;6.17;5.87;;;20.10;99.90;;;;;;4919498;29;20452;-81
2023/03/21 09:45:59;;;;;;;6.60;6.40;;;20.00;99.90;;;;;;4918332;29;20516;-81
2023/03/21 09:48:39;;;;;;;5.87;5.73;;;19.90;99.90;;;;;;4915910;29;20490;-81
2023/03/21 09:51:27;;;;;;;6.60;6.20;;;20.00;99.90;;;;;;4926742;29;20512;-83
2023/03/21 09:53:57;;;;;;;6.13;5.90;;;19.80;99.90;;;;;;4928184;29;20450;-78
2023/03/21 09:56:25;;;;;;;5.63;5.53;;;19.70;99.90;;;;;;4921780;29;20987;-83
2023/03/21 09:58:58;;;;;;;5.90;5.57;;;19.80;99.90;;;;;;4926166;29;20513;-81
2023/03/21 10:01:28;;;;;;;5.63;5.43;;;19.60;99.90;;;;;;4924468;29;20456;-81
2023/03/21 10:04:00;;;;;;;5.57;5.37;;;19.60;99.90;;;;;;4927147;29;20942;-82
2023/03/21 10:06:30;;;;;;;5.60;5.50;;;19.60;99.90;;;;;;4925842;29;20449;-81
2023/03/21 10:09:05;;;;;;;5.60;5.40;;;19.70;99.90;;;;;;4924384;29;20717;-80
2023/03/21 10:11:42;;;;;;;5.87;5.67;;;19.40;99.90;;;;;;4925798;29;20500;-80
2023/03/21 10:14:18;;;;;;;5.77;5.57;;;19.50;99.90;;;;;;4924647;29;20477;-79
2023/03/21 10:16:49;;;;;;;5.60;5.40;;;19.80;99.90;;;;;;4923845;29;20458;-79
2023/03/21 10:19:20;;;;;;;5.87;5.57;;;19.90;99.90;;;;;;4925793;29;20470;-81
2023/03/21 10:21:51;;;;;;;6.10;5.90;;;19.90;99.90;;;;;;4922620;29;20457;-79
2023/03/21 10:24:33;;;;;;;6.27;6.00;;;19.80;99.90;;;;;;4922712;29;20485;-80
2023/03/21 10:27:04;;;;;;;5.03;4.93;;;19.70;99.90;;;;;;4929584;29;20461;-81
2023/03/21 10:29:40;;;;;;;5.30;5.20;;;19.70;99.90;;;;;;4921988;29;20573;-82
2023/03/21 10:32:11;;;;;;;5.10;4.90;;;19.40;99.90;;;;;;4920673;29;20464;-80
2023/03/21 10:34:46;;;;;;;4.80;4.70;;;19.50;99.90;;;;;;4921615;29;20571;-82
2023/03/21 10:37:15;;;;;;;4.93;4.83;;;19.20;99.90;;;;;;4921836;29;20462;-78
2023/03/21 10:39:47;;;;;;;5.97;5.70;;;19.20;99.90;;;;;;4919471;29;20847;-81
2023/03/21 10:42:20;;;;;;;5.10;5.00;;;19.30;99.90;;;;;;4919855;29;20465;-80
2023/03/21 10:44:50;;;;;;;4.80;4.70;;;19.30;99.90;;;;;;4905101;29;21176;-80
2023/03/21 10:47:21;;;;;;;5.10;4.80;;;19.10;99.90;;;;;;4916453;29;20946;-81
2023/03/21 10:49:51;;;;;;;5.10;5.00;;;19.00;99.90;;;;;;4918215;29;21276;-83
2023/03/21 10:52:42;;;;;;;5.27;5.07;;;19.20;99.90;;;;;;4918961;29;20763;-82
2023/03/21 10:55:20;;;;;;;7.20;6.80;;;19.00;99.90;;;;;;4920946;29;20500;-80
2023/03/21 10:57:53;;;;;;;7.40;6.83;;;19.20;99.90;;;;;;4924960;29;20735;-82
2023/03/21 11:00:25;;;;;;;6.17;5.97;;;19.10;99.90;;;;;;4923829;29;20461;-82
2023/03/21 11:02:54;;;;;;;6.17;5.90;;;19.00;99.90;;;;;;4920382;29;20465;-81
2023/03/21 11:05:26;;;;;;;6.40;6.20;;;18.90;99.90;;;;;;4923434;29;20575;-81
2023/03/21 11:08:00;;;;;;;6.27;6.07;;;18.80;99.90;;;;;;4923211;29;21490;-81
2023/03/21 11:10:31;;;;;;;6.47;6.27;;;18.70;99.90;;;;;;4915031;29;20461;-79
2023/03/21 11:13:05;;;;;;;6.97;6.57;;;18.40;99.90;;;;;;4921467;29;20484;-80
2023/03/21 11:15:41;;;;;;;6.40;6.10;;;18.30;99.90;;;;;;4920846;29;20607;-81
2023/03/21 11:18:18;;;;;;;5.93;5.73;;;18.10;96.20;;;;;;4907124;29;20799;-81
2023/03/21 11:20:53;;;;;;;6.90;6.63;;;18.10;96.50;;;;;;4917831;29;21124;-81
2023/03/21 11:23:25;;;;;;;6.80;6.50;;;18.00;96.40;;;;;;4917569;29;20505;-81
2023/03/21 11:25:54;;;;;;;6.50;6.30;;;18.00;96.40;;;;;;4915874;29;20878;-79
2023/03/21 11:28:27;;;;;;;6.43;6.13;;;17.80;94.50;;;;;;4918970;29;21102;-81
2023/03/21 11:30:57;;;;;;;6.40;6.20;;;17.70;94.90;;;;;;4921035;29;20858;-82
2023/03/21 11:33:29;;;;;;;6.00;5.90;;;17.70;96.30;;;;;;4917560;29;20496;-80
2023/03/21 11:36:04;;;;;;;6.07;5.87;;;17.70;96.60;;;;;;4920017;29;20496;-81
2023/03/21 11:38:36;;;;;;;7.00;6.70;;;17.70;96.10;;;;;;4919969;29;20458;-80
2023/03/21 11:41:07;;;;;;;6.50;6.20;;;17.70;96.60;;;;;;4917483;29;20464;-82
2023/03/21 11:43:37;;;;;;;6.57;6.27;;;17.60;96.60;;;;;;4917556;29;20475;-81
2023/03/21 11:46:09;;;;;;;6.10;5.90;;;17.60;99.90;;;;;;4910491;29;20494;-80
2023/03/21 11:48:40;;;;;;;6.53;6.23;;;17.50;96.70;;;;;;4922129;29;20467;-80
2023/03/21 11:51:22;;;;;;;6.70;6.50;;;17.50;96.60;;;;;;4925845;29;20517;-81
2023/03/21 11:54:02;;;;;;;6.20;6.00;;;17.50;95.80;;;;;;4925335;29;20964;-83
2023/03/21 11:56:33;;;;;;;6.83;6.53;;;17.40;97.00;;;;;;4922991;29;21256;-82
2023/03/21 11:59:16;;;;;;;6.60;6.30;;;17.40;96.50;;;;;;4919312;29;20475;-82
2023/03/21 12:01:57;;;;;;;6.13;6.03;;;17.40;95.80;;;;;;4919529;29;20497;-80
2023/03/21 12:04:40;;;;;;;6.57;6.27;;;17.40;96.30;;;;;;4918438;29;20563;-79
2023/03/21 12:07:35;;;;;;;6.30;6.10;;;17.30;95.70;;;;;;4926922;29;20492;-82
2023/03/21 12:10:24;;;;;;;5.93;5.73;;;17.40;95.80;;;;;;4921361;29;20985;-82
2023/03/21 12:13:01;;;;;;;6.20;6.00;;;17.40;96.80;;;;;;4923853;29;20460;-82
2023/03/21 12:15:36;;;;;;;5.43;5.33;;;17.40;94.80;;;;;;4919480;29;20489;-78
2023/03/21 12:18:16;;;;;;;5.80;5.60;;;17.40;93.90;;;;;;4901608;29;20485;-82
2023/03/21 12:20:49;;;;;;;5.43;5.23;;;17.40;93.50;;;;;;4914702;29;20467;-81
2023/03/21 12:23:54;;;;;;;6.20;5.90;;;17.40;93.30;;;;;;4917670;29;20475;-82
2023/03/21 12:26:26;;;;;;;6.20;6.00;;;17.40;94.50;;;;;;4920234;29;20493;-80
2023/03/21 12:29:10;;;;;;;5.80;5.47;;;17.40;93.80;;;;;;4917068;29;20464;-81
2023/03/21 12:31:51;;;;;;;5.37;5.20;;;17.40;94.30;;;;;;4923532;29;20488;-79
2023/03/21 12:34:32;;;;;;;5.40;5.20;;;17.40;92.60;;;;;;4925975;28;20473;-79
2023/03/21 12:37:10;;;;;;;5.00;4.80;;;17.40;93.00;;;;;;4925216;29;20480;-81
2023/03/21 12:39:40;;;;;;;5.70;5.50;;;17.50;94.00;;;;;;4926574;29;20498;-82
2023/03/21 12:42:47;;;;;;;5.00;4.80;;;17.60;93.20;;;;;;4919511;29;20466;-81
2023/03/21 12:45:19;;;;;;;4.80;4.60;;;17.50;90.20;;;;;;4874036;29;20483;-81
2023/03/21 12:47:54;;;;;;;4.73;4.53;;;17.50;87.70;;;;;;4908495;29;20991;-80
2023/03/21 12:50:26;;;;;;;4.57;4.43;;;17.50;85.40;;;;;;4923375;29;21052;-81
2023/03/21 12:52:59;;;;;;;4.70;4.50;;;17.40;83.20;;;;;;4928878;29;20457;-82
2023/03/21 12:55:31;;;;;;;3.87;3.77;;;17.30;78.60;;;;;;4933054;29;20475;-80
2023/03/21 12:58:04;;;;;;;4.03;3.93;;;17.30;78.70;;;;;;4918070;29;20493;-84
2023/03/21 13:00:37;;;;;;;4.20;4.10;;;17.30;80.80;;;;;;4923307;29;20461;-83
2023/03/21 13:03:13;;;;;;;4.20;4.10;;;17.40;82.80;;;;;;4922368;29;20464;-79
2023/03/21 13:05:48;;;;;;;4.63;4.53;;;17.50;86.80;;;;;;4927907;29;20479;-75
2023/03/21 13:08:24;;;;;;;4.50;4.20;;;17.60;89.50;;;;;;4906896;29;20446;-81
2023/03/21 13:10:55;;;;;;;3.93;3.83;;;17.80;90.50;;;;;;4929645;29;20466;-82
2023/03/21 13:13:33;;;;;;;5.13;3.90;;;17.60;85.50;;;;;;4931222;29;20486;-83